createdAt,value
2018-08-09T00:00:42.928Z,50.34
2018-08-09T00:01:46.349Z,50.37
2018-08-09T00:02:49.760Z,50.40
2018-08-09T00:03:53.224Z,50.49
2018-08-09T00:04:56.655Z,50.78
2018-08-09T00:06:00.083Z,50.20
2018-08-09T00:07:03.469Z,50.08
2018-08-09T00:08:06.866Z,49.88
2018-08-09T00:09:10.512Z,50.75
2018-08-09T00:10:14.036Z,49.94
2018-08-09T00:11:17.502Z,50.37
2018-08-09T00:12:20.873Z,50.59
2018-08-09T00:13:24.272Z,49.98
2018-08-09T00:14:27.701Z,50.52
2018-08-09T00:15:31.109Z,50.46
2018-08-09T00:16:34.570Z,51.06
2018-08-09T00:17:37.994Z,50.91
2018-08-09T00:18:41.398Z,50.49
2018-08-09T00:19:44.864Z,49.92
2018-08-09T00:20:48.266Z,50.01
2018-08-09T00:21:51.698Z,50.18
2018-08-09T00:22:55.070Z,50.41
2018-08-09T00:23:58.478Z,50.07
2018-08-09T00:25:01.876Z,49.80
2018-08-09T00:26:05.696Z,49.85
2018-08-09T00:27:09.091Z,50.34
2018-08-09T00:28:12.528Z,49.95
2018-08-09T00:29:15.928Z,49.88
2018-08-09T00:30:19.340Z,50.32
2018-08-09T00:31:22.736Z,50.27
2018-08-09T00:32:26.169Z,50.69
2018-08-09T00:33:29.575Z,50.11
2018-08-09T00:34:32.979Z,50.57
2018-08-09T00:35:36.390Z,49.69
2018-08-09T00:36:40.019Z,49.80
2018-08-09T00:37:43.466Z,49.95
2018-08-09T00:38:46.896Z,50.20
2018-08-09T00:39:50.269Z,49.58
2018-08-09T00:40:53.637Z,50.02
2018-08-09T00:41:57.050Z,50.01
2018-08-09T00:43:00.462Z,49.77
2018-08-09T00:44:03.906Z,50.39
2018-08-09T00:45:07.555Z,49.91
2018-08-09T00:46:10.945Z,49.65
2018-08-09T00:47:14.333Z,49.52
2018-08-09T00:48:17.762Z,49.57
2018-08-09T00:49:21.145Z,50.17
2018-08-09T00:50:24.541Z,49.59
2018-08-09T00:51:27.943Z,49.69
2018-08-09T00:52:31.339Z,50.25
2018-08-09T00:53:34.741Z,50.22
2018-08-09T00:54:38.139Z,49.41
2018-08-09T00:55:41.521Z,49.65
2018-08-09T00:56:44.937Z,50.24
2018-08-09T00:57:48.336Z,49.43
2018-08-09T00:58:51.748Z,49.86
2018-08-09T00:59:55.159Z,50.10
2018-08-09T01:00:58.568Z,50.22
2018-08-09T01:02:01.982Z,49.40
2018-08-09T01:03:05.398Z,49.74
2018-08-09T01:04:08.829Z,50.11
2018-08-09T01:05:12.212Z,49.33
2018-08-09T01:06:15.788Z,49.26
2018-08-09T01:07:19.308Z,49.40
2018-08-09T01:08:22.698Z,49.62
2018-08-09T01:09:26.096Z,49.48
2018-08-09T01:10:29.479Z,49.28
2018-08-09T01:11:32.932Z,49.78
2018-08-09T01:12:36.350Z,49.64
2018-08-09T01:13:39.753Z,49.92
2018-08-09T01:14:43.159Z,49.73
2018-08-09T01:15:46.540Z,49.47
2018-08-09T01:16:49.966Z,50.23
2018-08-09T01:17:53.388Z,49.65
2018-08-09T01:18:56.816Z,49.66
2018-08-09T01:20:00.264Z,49.56
2018-08-09T01:21:03.669Z,49.54
2018-08-09T01:22:07.102Z,49.73
2018-08-09T01:23:10.534Z,49.55
2018-08-09T01:24:13.957Z,49.70
2018-08-09T01:25:17.494Z,49.53
2018-08-09T01:26:21.078Z,49.46
2018-08-09T01:27:24.457Z,49.97
2018-08-09T01:28:27.858Z,49.69
2018-08-09T01:29:31.412Z,49.29
2018-08-09T01:30:34.851Z,50.14
2018-08-09T01:31:39.012Z,49.74
2018-08-09T01:32:42.426Z,50.21
2018-08-09T01:33:45.808Z,49.38
2018-08-09T01:34:49.240Z,49.32
2018-08-09T01:35:52.684Z,50.31
2018-08-09T01:36:56.084Z,49.66
2018-08-09T01:37:59.497Z,49.58
2018-08-09T01:39:04.960Z,49.95
2018-08-09T01:40:08.404Z,50.11
2018-08-09T01:41:11.830Z,49.65
2018-08-09T01:42:26.496Z,49.69
2018-08-09T01:43:41.301Z,49.27
2018-08-09T01:44:44.813Z,49.81
2018-08-09T01:45:48.240Z,50.06
2018-08-09T01:46:51.628Z,49.98
2018-08-09T01:47:55.013Z,49.40
2018-08-09T01:48:58.971Z,49.76
2018-08-09T01:50:02.645Z,49.03
2018-08-09T01:51:06.117Z,50.13
2018-08-09T01:52:09.554Z,49.60
2018-08-09T01:53:13.326Z,50.28
2018-08-09T01:54:16.744Z,49.71
2018-08-09T01:55:20.166Z,49.40
2018-08-09T01:56:23.628Z,50.08
2018-08-09T01:57:27.037Z,49.60
2018-08-09T01:58:30.443Z,49.76
2018-08-09T01:59:33.849Z,49.81
2018-08-09T02:00:37.232Z,49.85
2018-08-09T02:01:40.612Z,49.43
2018-08-09T02:02:44.020Z,50.00
2018-08-09T02:03:47.450Z,50.10
2018-08-09T02:04:50.957Z,49.79
2018-08-09T02:05:54.248Z,50.21
2018-08-09T02:06:57.622Z,49.43
2018-08-09T02:08:01.065Z,49.76
2018-08-09T02:09:11.447Z,49.44
2018-08-09T02:10:14.882Z,49.46
2018-08-09T02:11:18.373Z,49.95
2018-08-09T02:12:21.768Z,49.47
2018-08-09T02:13:25.186Z,49.83
2018-08-09T02:14:28.568Z,50.02
2018-08-09T02:15:31.968Z,49.60
2018-08-09T02:16:35.357Z,49.52
2018-08-09T02:17:38.756Z,49.46
2018-08-09T02:18:42.169Z,49.58
2018-08-09T02:19:45.571Z,49.56
2018-08-09T02:20:48.996Z,49.46
2018-08-09T02:21:52.361Z,49.92
2018-08-09T02:22:55.729Z,49.40
2018-08-09T02:23:59.140Z,49.53
2018-08-09T02:25:02.551Z,50.16
2018-08-09T02:26:05.977Z,50.21
2018-08-09T02:27:09.391Z,49.65
2018-08-09T02:28:12.825Z,49.67
2018-08-09T02:29:16.280Z,50.28
2018-08-09T02:30:19.724Z,49.83
2018-08-09T02:31:23.137Z,49.84
2018-08-09T02:32:26.536Z,49.93
2018-08-09T02:33:29.980Z,49.68
2018-08-09T02:34:33.380Z,49.64
2018-08-09T02:35:36.785Z,50.55
2018-08-09T02:36:40.174Z,50.53
2018-08-09T02:37:44.159Z,50.06
2018-08-09T02:38:47.574Z,50.65
2018-08-09T02:39:50.983Z,49.90
2018-08-09T02:40:54.353Z,50.21
2018-08-09T02:41:57.756Z,49.83
2018-08-09T02:43:01.178Z,50.14
2018-08-09T02:44:04.612Z,49.74
2018-08-09T02:45:08.004Z,50.07
2018-08-09T02:46:11.421Z,49.71
2018-08-09T02:47:14.830Z,49.69
2018-08-09T02:48:18.256Z,49.45
2018-08-09T02:49:21.622Z,50.10
2018-08-09T02:50:24.985Z,49.68
2018-08-09T02:51:28.580Z,50.38
2018-08-09T02:52:32.169Z,50.36
2018-08-09T02:53:35.596Z,50.34
2018-08-09T02:54:38.962Z,49.54
2018-08-09T02:55:42.375Z,50.00
2018-08-09T02:56:45.811Z,50.33
2018-08-09T02:57:49.206Z,50.45
2018-08-09T02:58:52.573Z,50.30
2018-08-09T02:59:56.061Z,49.98
2018-08-09T03:00:59.438Z,49.61
2018-08-09T03:02:02.851Z,49.97
2018-08-09T03:03:06.517Z,49.64
2018-08-09T03:04:09.926Z,49.98
2018-08-09T03:05:13.341Z,49.85
2018-08-09T03:06:16.784Z,50.31
2018-08-09T03:07:20.191Z,49.63
2018-08-09T03:08:23.640Z,49.93
2018-08-09T03:09:27.045Z,49.76
2018-08-09T03:10:30.424Z,49.65
2018-08-09T03:11:33.835Z,50.10
2018-08-09T03:12:37.247Z,49.51
2018-08-09T03:13:40.669Z,49.89
2018-08-09T03:14:44.064Z,49.94
2018-08-09T03:15:47.460Z,49.43
2018-08-09T03:16:50.842Z,49.86
2018-08-09T03:17:54.247Z,50.14
2018-08-09T03:18:57.683Z,49.76
2018-08-09T03:20:01.051Z,49.42
2018-08-09T03:21:04.462Z,50.23
2018-08-09T03:22:07.896Z,49.88
2018-08-09T03:23:11.295Z,50.15
2018-08-09T03:24:14.737Z,49.88
2018-08-09T03:25:18.144Z,49.53
2018-08-09T03:26:21.571Z,49.87
2018-08-09T03:27:24.970Z,49.94
2018-08-09T03:28:28.356Z,49.95
2018-08-09T03:29:31.743Z,50.53
2018-08-09T03:30:35.140Z,49.83
2018-08-09T03:31:38.576Z,50.29
2018-08-09T03:32:41.953Z,50.62
2018-08-09T03:33:45.348Z,50.57
2018-08-09T03:34:48.789Z,50.17
2018-08-09T03:35:52.199Z,50.63
2018-08-09T03:36:55.608Z,50.63
2018-08-09T03:37:59.015Z,50.49
2018-08-09T03:39:02.469Z,49.92
2018-08-09T03:40:06.187Z,50.78
2018-08-09T03:41:09.586Z,50.66
2018-08-09T03:42:13.034Z,50.72
2018-08-09T03:43:16.436Z,50.57
2018-08-09T03:44:19.836Z,50.11
2018-08-09T03:45:23.278Z,50.17
2018-08-09T03:46:26.673Z,50.35
2018-08-09T03:47:30.075Z,50.15
2018-08-09T03:48:33.463Z,50.63
2018-08-09T03:49:36.870Z,50.59
2018-08-09T03:50:40.288Z,50.22
2018-08-09T03:51:43.753Z,50.21
2018-08-09T03:52:47.205Z,50.75
2018-08-09T03:53:50.565Z,50.79
2018-08-09T03:54:54.070Z,50.81
2018-08-09T03:55:57.490Z,51.15
2018-08-09T03:57:00.898Z,50.38
2018-08-09T03:58:04.308Z,51.03
2018-08-09T03:59:07.696Z,51.07
2018-08-09T04:00:11.304Z,50.90
2018-08-09T04:01:14.800Z,50.94
2018-08-09T04:02:18.196Z,50.70
2018-08-09T04:03:21.610Z,50.16
2018-08-09T04:04:25.046Z,50.27
2018-08-09T04:05:28.828Z,51.07
2018-08-09T04:06:32.238Z,51.05
2018-08-09T04:07:35.673Z,50.16
2018-08-09T04:08:39.042Z,51.01
2018-08-09T04:09:42.458Z,50.20
2018-08-09T04:10:45.847Z,50.56
2018-08-09T04:11:49.300Z,51.01
2018-08-09T04:12:52.672Z,50.96
2018-08-09T04:13:56.073Z,50.71
2018-08-09T04:15:00.256Z,50.12
2018-08-09T04:16:03.676Z,50.74
2018-08-09T04:17:12.249Z,50.30
2018-08-09T04:18:15.639Z,50.46
2018-08-09T04:19:19.044Z,50.05
2018-08-09T04:20:22.576Z,48.00
2018-08-09T04:21:25.958Z,46.02
2018-08-09T04:22:29.362Z,43.78
2018-08-09T04:23:32.769Z,43.89
2018-08-09T04:24:36.186Z,43.13
2018-08-09T04:25:39.569Z,42.74
2018-08-09T04:26:43.053Z,42.81
2018-08-09T04:27:46.507Z,43.39
2018-08-09T04:28:50.160Z,42.59
2018-08-09T04:29:53.629Z,43.25
2018-08-09T04:30:57.072Z,42.74
2018-08-09T04:32:00.456Z,42.96
2018-08-09T04:33:03.841Z,43.06
2018-08-09T04:34:07.229Z,43.37
2018-08-09T04:35:10.602Z,43.16
2018-08-09T04:36:14.332Z,43.23
2018-08-09T04:37:17.782Z,43.45
2018-08-09T04:38:21.181Z,43.15
2018-08-09T04:39:24.558Z,43.83
2018-08-09T04:40:27.973Z,43.98
2018-08-09T04:41:31.366Z,44.05
2018-08-09T04:42:34.795Z,43.88
2018-08-09T04:43:38.188Z,43.86
2018-08-09T04:44:41.592Z,44.28
2018-08-09T04:45:45.144Z,43.98
2018-08-09T04:46:48.550Z,44.22
2018-08-09T04:47:51.983Z,45.00
2018-08-09T04:48:55.362Z,44.83
2018-08-09T04:49:58.730Z,44.58
2018-08-09T04:51:02.141Z,44.53
2018-08-09T04:52:05.631Z,44.88
2018-08-09T04:53:09.060Z,44.47
2018-08-09T04:54:12.497Z,44.45
2018-08-09T04:55:15.942Z,44.75
2018-08-09T04:56:19.340Z,44.65
2018-08-09T04:57:22.732Z,45.00
2018-08-09T04:58:26.210Z,44.44
2018-08-09T04:59:29.723Z,44.38
2018-08-09T05:00:33.152Z,44.86
2018-08-09T05:01:36.533Z,44.13
2018-08-09T05:02:39.932Z,44.95
2018-08-09T05:03:43.328Z,44.61
2018-08-09T05:04:46.822Z,44.42
2018-08-09T05:05:50.232Z,44.92
2018-08-09T05:06:53.624Z,44.34
2018-08-09T05:07:57.030Z,44.64
2018-08-09T05:09:00.456Z,44.54
2018-08-09T05:10:10.857Z,45.01
2018-08-09T05:11:14.277Z,44.12
2018-08-09T05:12:17.680Z,44.09
2018-08-09T05:13:21.126Z,44.23
2018-08-09T05:14:24.577Z,45.08
2018-08-09T05:15:28.003Z,44.26
2018-08-09T05:16:31.452Z,44.40
2018-08-09T05:17:35.196Z,44.47
2018-08-09T05:18:38.624Z,45.56
2018-08-09T05:19:42.013Z,45.34
2018-08-09T05:20:45.424Z,44.76
2018-08-09T05:21:48.834Z,45.23
2018-08-09T05:22:52.232Z,45.75
2018-08-09T05:23:55.632Z,45.79
2018-08-09T05:24:59.044Z,45.35
2018-08-09T05:26:02.459Z,45.90
2018-08-09T05:27:05.895Z,44.99
2018-08-09T05:28:09.510Z,45.75
2018-08-09T05:29:12.897Z,45.58
2018-08-09T05:30:16.320Z,45.64
2018-08-09T05:31:19.769Z,45.45
2018-08-09T05:32:23.157Z,45.60
2018-08-09T05:33:26.594Z,45.71
2018-08-09T05:34:29.998Z,46.04
2018-08-09T05:35:33.436Z,46.11
2018-08-09T05:36:36.868Z,46.88
2018-08-09T05:37:41.068Z,47.02
2018-08-09T05:38:44.460Z,46.95
2018-08-09T05:39:47.879Z,46.73
2018-08-09T05:40:51.300Z,47.25
2018-08-09T05:41:54.849Z,47.71
2018-08-09T05:42:58.248Z,47.30
2018-08-09T05:44:01.640Z,47.77
2018-08-09T05:45:05.803Z,47.94
2018-08-09T05:46:09.441Z,47.58
2018-08-09T05:47:12.855Z,47.42
2018-08-09T05:48:16.257Z,47.61
2018-08-09T05:49:19.668Z,47.50
2018-08-09T05:50:23.095Z,47.06
2018-08-09T05:51:26.506Z,47.35
2018-08-09T05:52:29.904Z,47.26
2018-08-09T05:53:33.313Z,47.52
2018-08-09T05:54:36.746Z,47.29
2018-08-09T05:55:40.145Z,47.51
2018-08-09T05:56:43.648Z,47.82
2018-08-09T05:57:47.096Z,47.19
2018-08-09T05:58:50.453Z,47.77
2018-08-09T05:59:53.867Z,47.80
2018-08-09T06:00:57.304Z,47.59
2018-08-09T06:02:00.691Z,48.38
2018-08-09T06:03:04.139Z,47.77
2018-08-09T06:04:08.069Z,48.49
2018-08-09T06:05:11.442Z,48.07
2018-08-09T06:06:14.942Z,47.99
2018-08-09T06:07:18.376Z,48.00
2018-08-09T06:08:21.765Z,48.12
2018-08-09T06:09:25.191Z,48.30
2018-08-09T06:10:28.659Z,48.32
2018-08-09T06:11:32.084Z,48.61
2018-08-09T06:12:35.490Z,48.73
2018-08-09T06:13:38.965Z,49.27
2018-08-09T06:14:42.362Z,49.52
2018-08-09T06:15:45.818Z,49.02
2018-08-09T06:16:49.301Z,49.46
2018-08-09T06:17:52.738Z,48.84
2018-08-09T06:18:56.205Z,48.66
2018-08-09T06:19:59.585Z,48.65
2018-08-09T06:21:03.021Z,48.43
2018-08-09T06:22:06.912Z,48.16
2018-08-09T06:23:10.388Z,48.02
2018-08-09T06:24:13.784Z,48.57
2018-08-09T06:25:17.193Z,47.95
2018-08-09T06:26:20.843Z,48.38
2018-08-09T06:27:24.251Z,48.59
2018-08-09T06:28:27.706Z,48.51
2018-08-09T06:29:31.140Z,48.30
2018-08-09T06:30:34.619Z,48.14
2018-08-09T06:31:38.080Z,48.73
2018-08-09T06:32:41.537Z,48.94
2018-08-09T06:33:45.165Z,48.68
2018-08-09T06:34:48.605Z,48.85
2018-08-09T06:35:52.059Z,49.12
2018-08-09T06:36:55.514Z,47.99
2018-08-09T06:37:59.148Z,48.28
2018-08-09T06:39:02.680Z,48.85
2018-08-09T06:40:08.883Z,48.58
2018-08-09T06:41:12.418Z,48.58
2018-08-09T06:42:16.012Z,47.88
2018-08-09T06:43:19.452Z,48.04
2018-08-09T06:44:22.848Z,48.48
2018-08-09T06:45:26.271Z,48.40
2018-08-09T06:46:29.808Z,48.03
2018-08-09T06:47:33.551Z,47.53
2018-08-09T06:48:36.958Z,48.01
2018-08-09T06:49:40.375Z,48.24
2018-08-09T06:50:43.885Z,48.10
2018-08-09T06:51:47.392Z,48.37
2018-08-09T06:52:50.810Z,47.47
2018-08-09T06:53:54.226Z,48.16
2018-08-09T06:54:57.680Z,47.59
2018-08-09T06:56:01.098Z,48.17
2018-08-09T06:57:04.972Z,48.06
2018-08-09T06:58:08.467Z,48.05
2018-08-09T06:59:11.937Z,48.30
2018-08-09T07:00:15.345Z,48.02
2018-08-09T07:01:18.769Z,48.00
2018-08-09T07:02:22.177Z,48.57
2018-08-09T07:03:25.587Z,48.33
2018-08-09T07:04:29.042Z,48.65
2018-08-09T07:05:32.610Z,47.99
2018-08-09T07:06:36.012Z,48.68
2018-08-09T07:07:40.062Z,48.84
2018-08-09T07:08:43.476Z,49.13
2018-08-09T07:09:47.001Z,48.61
2018-08-09T07:10:50.388Z,48.37
2018-08-09T07:11:53.774Z,48.75
2018-08-09T07:12:57.209Z,48.73
2018-08-09T07:14:00.610Z,48.32
2018-08-09T07:15:05.173Z,48.36
2018-08-09T07:16:08.618Z,49.11
2018-08-09T07:17:12.004Z,48.60
2018-08-09T07:18:15.444Z,49.04
2018-08-09T07:19:18.845Z,48.78
2018-08-09T07:20:22.282Z,48.21
2018-08-09T07:21:25.791Z,48.55
2018-08-09T07:22:29.250Z,48.80
2018-08-09T07:23:32.765Z,48.36
2018-08-09T07:24:36.161Z,48.35
2018-08-09T07:25:39.573Z,47.88
2018-08-09T07:26:42.965Z,47.89
2018-08-09T07:27:46.372Z,48.53
2018-08-09T07:28:49.883Z,48.49
2018-08-09T07:29:53.346Z,48.10
2018-08-09T07:30:56.757Z,47.63
2018-08-09T07:32:00.230Z,47.89
2018-08-09T07:33:03.685Z,48.24
2018-08-09T07:34:07.059Z,48.47
2018-08-09T07:35:11.292Z,47.58
2018-08-09T07:36:14.744Z,47.42
2018-08-09T07:37:18.212Z,48.04
2018-08-09T07:38:21.656Z,47.81
2018-08-09T07:39:25.136Z,47.69
2018-08-09T07:40:28.531Z,47.77
2018-08-09T07:41:31.961Z,47.96
2018-08-09T07:42:35.357Z,47.83
2018-08-09T07:43:38.766Z,47.92
2018-08-09T07:44:42.189Z,47.72
2018-08-09T07:45:45.611Z,48.10
2018-08-09T07:46:49.072Z,47.68
2018-08-09T07:47:52.562Z,48.30
2018-08-09T07:48:55.989Z,48.16
2018-08-09T07:49:59.366Z,48.17
2018-08-09T07:51:02.857Z,47.73
2018-08-09T07:52:06.276Z,48.06
2018-08-09T07:53:09.724Z,48.13
2018-08-09T07:54:13.235Z,47.60
2018-08-09T07:55:16.644Z,47.36
2018-08-09T07:56:20.077Z,48.26
2018-08-09T07:57:23.498Z,47.23
2018-08-09T07:58:26.939Z,47.89
2018-08-09T07:59:30.344Z,47.35
2018-08-09T08:00:33.783Z,47.41
2018-08-09T08:01:37.180Z,47.99
2018-08-09T08:02:41.011Z,47.29
2018-08-09T08:03:44.498Z,47.94
2018-08-09T08:04:47.930Z,47.46
2018-08-09T08:05:51.398Z,47.97
2018-08-09T08:06:54.733Z,47.66
2018-08-09T08:07:58.157Z,47.58
2018-08-09T08:09:01.567Z,47.01
2018-08-09T08:10:06.498Z,47.51
2018-08-09T08:11:09.924Z,47.68
2018-08-09T08:12:13.359Z,47.48
2018-08-09T08:13:18.608Z,47.65
2018-08-09T08:14:22.045Z,47.83
2018-08-09T08:15:25.450Z,47.76
2018-08-09T08:16:28.842Z,47.57
2018-08-09T08:17:32.234Z,47.85
2018-08-09T08:18:35.731Z,47.54
2018-08-09T08:19:39.143Z,46.97
2018-08-09T08:20:42.608Z,47.85
2018-08-09T08:21:45.981Z,47.28
2018-08-09T08:22:49.401Z,47.33
2018-08-09T08:23:52.855Z,47.83
2018-08-09T08:24:56.432Z,47.46
2018-08-09T08:25:59.865Z,47.51
2018-08-09T08:27:03.269Z,47.81
2018-08-09T08:28:06.704Z,47.67
2018-08-09T08:29:10.166Z,47.28
2018-08-09T08:30:14.469Z,47.43
2018-08-09T08:31:17.872Z,47.28
2018-08-09T08:32:21.238Z,47.84
2018-08-09T08:33:24.670Z,47.33
2018-08-09T08:34:28.128Z,47.71
2018-08-09T08:35:32.013Z,47.48
2018-08-09T08:36:35.418Z,47.44
2018-08-09T08:37:39.278Z,47.29
2018-08-09T08:38:42.707Z,47.47
2018-08-09T08:39:46.160Z,47.68
2018-08-09T08:40:49.557Z,47.68
2018-08-09T08:41:52.998Z,47.50
2018-08-09T08:42:56.405Z,47.22
2018-08-09T08:43:59.818Z,47.78
2018-08-09T08:45:03.289Z,47.37
2018-08-09T08:46:06.802Z,47.52
2018-08-09T08:47:10.267Z,47.94
2018-08-09T08:48:13.720Z,47.80
2018-08-09T08:49:17.186Z,47.46
2018-08-09T08:50:20.573Z,47.85
2018-08-09T08:51:24.012Z,47.04
2018-08-09T08:52:27.479Z,47.54
2018-08-09T08:53:30.904Z,47.46
2018-08-09T08:54:34.289Z,47.55
2018-08-09T08:55:37.710Z,47.28
2018-08-09T08:56:41.186Z,47.35
2018-08-09T08:57:44.671Z,47.34
2018-08-09T08:58:48.129Z,47.00
2018-08-09T08:59:51.550Z,47.41
2018-08-09T09:00:54.966Z,47.33
2018-08-09T09:01:58.412Z,46.98
2018-08-09T09:03:01.857Z,47.54
2018-08-09T09:04:05.292Z,47.44
2018-08-09T09:05:10.667Z,47.38
2018-08-09T09:06:14.161Z,47.06
2018-08-09T09:07:17.584Z,47.89
2018-08-09T09:08:21.150Z,47.41
2018-08-09T09:09:24.542Z,47.08
2018-08-09T09:10:27.969Z,47.83
2018-08-09T09:11:31.370Z,47.52
2018-08-09T09:12:34.964Z,47.39
2018-08-09T09:13:38.550Z,47.54
2018-08-09T09:14:42.052Z,47.42
2018-08-09T09:15:45.840Z,47.91
2018-08-09T09:16:49.261Z,47.35
2018-08-09T09:17:52.700Z,47.35
2018-08-09T09:18:56.115Z,47.32
2018-08-09T09:19:59.552Z,47.78
2018-08-09T09:21:02.985Z,47.11
2018-08-09T09:22:06.515Z,47.70
2018-08-09T09:23:09.945Z,46.99
2018-08-09T09:24:13.356Z,47.71
2018-08-09T09:25:16.762Z,47.39
2018-08-09T09:26:20.219Z,47.84
2018-08-09T09:27:23.636Z,47.28
2018-08-09T09:28:27.033Z,47.93
2018-08-09T09:29:30.440Z,46.91
2018-08-09T09:30:33.801Z,47.03
2018-08-09T09:31:37.208Z,47.77
2018-08-09T09:32:40.622Z,47.39
2018-08-09T09:33:44.981Z,47.57
2018-08-09T09:34:48.426Z,47.37
2018-08-09T09:35:51.871Z,47.22
2018-08-09T09:36:55.369Z,47.77
2018-08-09T09:37:58.764Z,47.35
2018-08-09T09:39:02.884Z,47.32
2018-08-09T09:40:07.103Z,47.07
2018-08-09T09:41:11.128Z,46.93
2018-08-09T09:42:14.549Z,47.32
2018-08-09T09:43:18.053Z,47.33
2018-08-09T09:44:21.486Z,47.32
2018-08-09T09:45:24.895Z,47.62
2018-08-09T09:46:28.309Z,46.89
2018-08-09T09:47:31.751Z,46.98
2018-08-09T09:48:35.158Z,47.41
2018-08-09T09:49:38.580Z,47.45
2018-08-09T09:50:42.018Z,46.99
2018-08-09T09:51:45.439Z,47.24
2018-08-09T09:52:48.836Z,47.23
2018-08-09T09:53:52.255Z,47.34
2018-08-09T09:54:55.661Z,47.52
2018-08-09T09:55:59.075Z,47.73
2018-08-09T09:57:02.503Z,47.22
2018-08-09T09:58:06.040Z,47.78
2018-08-09T09:59:09.448Z,47.80
2018-08-09T10:00:18.068Z,47.85
2018-08-09T10:01:26.823Z,46.85
2018-08-09T10:02:30.382Z,47.81
2018-08-09T10:03:33.753Z,47.78
2018-08-09T10:04:37.124Z,47.38
2018-08-09T10:05:40.496Z,47.40
2018-08-09T10:06:43.890Z,47.37
2018-08-09T10:07:47.308Z,47.25
2018-08-09T10:08:50.705Z,47.29
2018-08-09T10:09:54.124Z,46.91
2018-08-09T10:10:57.534Z,47.89
2018-08-09T10:12:00.942Z,47.63
2018-08-09T10:13:04.391Z,47.50
2018-08-09T10:14:07.860Z,47.47
2018-08-09T10:15:11.551Z,47.41
2018-08-09T10:16:14.985Z,47.83
2018-08-09T10:17:18.408Z,47.88
2018-08-09T10:18:21.814Z,47.33
2018-08-09T10:19:25.245Z,47.50
2018-08-09T10:20:28.622Z,47.54
2018-08-09T10:21:32.055Z,47.02
2018-08-09T10:22:35.610Z,47.31
2018-08-09T10:23:38.979Z,47.37
2018-08-09T10:24:42.357Z,46.84
2018-08-09T10:25:45.766Z,47.67
2018-08-09T10:26:49.184Z,48.14
2018-08-09T10:27:52.610Z,47.96
2018-08-09T10:28:56.044Z,47.22
2018-08-09T10:29:59.456Z,47.64
2018-08-09T10:31:02.835Z,48.25
2018-08-09T10:32:06.226Z,48.08
2018-08-09T10:33:09.633Z,47.48
2018-08-09T10:34:13.175Z,47.22
2018-08-09T10:35:16.566Z,47.43
2018-08-09T10:36:19.952Z,47.63
2018-08-09T10:37:23.412Z,47.13
2018-08-09T10:38:26.770Z,48.09
2018-08-09T10:39:30.153Z,47.15
2018-08-09T10:40:33.585Z,47.44
2018-08-09T10:41:36.994Z,47.86
2018-08-09T10:42:40.460Z,47.56
2018-08-09T10:43:43.846Z,47.46
2018-08-09T10:44:47.662Z,47.41
2018-08-09T10:45:51.041Z,48.01
2018-08-09T10:46:54.428Z,47.74
2018-08-09T10:47:57.952Z,47.78
2018-08-09T10:49:01.385Z,47.52
2018-08-09T10:50:04.892Z,47.99
2018-08-09T10:51:09.005Z,47.51
2018-08-09T10:52:12.917Z,47.82
2018-08-09T10:53:16.349Z,47.66
2018-08-09T10:54:20.138Z,47.28
2018-08-09T10:55:23.560Z,48.26
2018-08-09T10:56:27.206Z,47.28
2018-08-09T10:57:30.606Z,48.01
2018-08-09T10:58:34.031Z,47.76
2018-08-09T10:59:37.790Z,48.09
2018-08-09T11:00:41.687Z,47.93
2018-08-09T11:01:45.123Z,47.46
2018-08-09T11:02:48.527Z,48.08
2018-08-09T11:03:52.112Z,47.62
2018-08-09T11:04:55.520Z,48.00
2018-08-09T11:05:58.970Z,48.61
2018-08-09T11:07:02.379Z,48.24
2018-08-09T11:08:06.040Z,47.92
2018-08-09T11:09:11.263Z,48.15
2018-08-09T11:10:14.689Z,48.76
2018-08-09T11:11:18.120Z,48.09
2018-08-09T11:12:21.569Z,48.27
2018-08-09T11:13:24.964Z,48.70
2018-08-09T11:14:28.358Z,47.85
2018-08-09T11:15:31.754Z,48.29
2018-08-09T11:16:35.152Z,48.68
2018-08-09T11:17:40.002Z,47.86
2018-08-09T11:18:44.250Z,48.77
2018-08-09T11:19:48.512Z,47.95
2018-08-09T11:20:52.567Z,48.32
2018-08-09T11:21:56.011Z,48.11
2018-08-09T11:22:59.438Z,48.79
2018-08-09T11:24:03.187Z,48.44
2018-08-09T11:25:07.477Z,48.76
2018-08-09T11:26:10.879Z,48.47
2018-08-09T11:27:14.289Z,48.95
2018-08-09T11:28:17.741Z,48.79
2018-08-09T11:29:21.155Z,48.62
2018-08-09T11:30:24.526Z,48.68
2018-08-09T11:31:28.158Z,48.92
2018-08-09T11:32:31.548Z,48.88
2018-08-09T11:33:34.924Z,48.11
2018-08-09T11:34:38.330Z,48.38
2018-08-09T11:35:41.759Z,48.14
2018-08-09T11:36:45.145Z,48.70
2018-08-09T11:37:50.810Z,48.54
2018-08-09T11:38:54.240Z,48.15
2018-08-09T11:39:57.726Z,48.98
2018-08-09T11:41:01.118Z,48.36
2018-08-09T11:42:04.552Z,49.13
2018-08-09T11:43:08.949Z,48.80
2018-08-09T11:44:14.175Z,49.04
2018-08-09T11:45:21.694Z,48.36
2018-08-09T11:46:24.912Z,48.83
2018-08-09T11:47:28.302Z,48.41
2018-08-09T11:48:32.149Z,48.81
2018-08-09T11:49:35.610Z,48.83
2018-08-09T11:50:40.869Z,48.87
2018-08-09T11:51:44.274Z,48.76
2018-08-09T11:52:47.712Z,49.31
2018-08-09T11:53:51.135Z,48.74
2018-08-09T11:54:54.702Z,48.41
2018-08-09T11:55:58.121Z,48.91
2018-08-09T11:57:01.588Z,48.94
2018-08-09T11:58:06.072Z,48.81
2018-08-09T11:59:10.195Z,48.45
2018-08-09T12:00:13.744Z,48.60
2018-08-09T12:01:17.787Z,48.80
2018-08-09T12:02:22.276Z,49.45
2018-08-09T12:03:25.728Z,49.11
2018-08-09T12:04:30.124Z,48.95
2018-08-09T12:05:35.050Z,49.37
2018-08-09T12:06:38.454Z,48.99
2018-08-09T12:07:42.014Z,48.55
2018-08-09T12:08:45.481Z,49.11
2018-08-09T12:09:49.706Z,48.96
2018-08-09T12:10:54.132Z,49.21
2018-08-09T12:11:57.811Z,49.01
2018-08-09T12:13:01.255Z,48.65
2018-08-09T12:14:05.733Z,48.16
2018-08-09T12:15:09.206Z,48.49
2018-08-09T12:16:15.490Z,49.03
2018-08-09T12:17:19.062Z,49.14
2018-08-09T12:18:23.126Z,48.62
2018-08-09T12:19:26.611Z,49.02
2018-08-09T12:20:31.077Z,48.48
2018-08-09T12:21:35.469Z,49.20
2018-08-09T12:22:38.970Z,48.62
2018-08-09T12:23:43.346Z,48.35
2018-08-09T12:24:47.319Z,48.82
2018-08-09T12:25:50.818Z,48.36
2018-08-09T12:26:54.464Z,48.96
2018-08-09T12:27:58.056Z,48.89
2018-08-09T12:29:01.655Z,48.62
2018-08-09T12:30:08.246Z,48.85
2018-08-09T12:31:11.703Z,48.80
2018-08-09T12:32:15.349Z,49.05
2018-08-09T12:33:19.299Z,48.23
2018-08-09T12:34:23.080Z,48.23
2018-08-09T12:35:26.983Z,48.22
2018-08-09T12:36:30.676Z,48.46
2018-08-09T12:37:34.211Z,48.68
2018-08-09T12:38:37.742Z,48.29
2018-08-09T12:39:41.912Z,48.21
2018-08-09T12:40:45.362Z,48.21
2018-08-09T12:41:48.951Z,48.57
2018-08-09T12:42:52.799Z,48.54
2018-08-09T12:43:56.813Z,48.16
2018-08-09T12:45:00.310Z,48.22
2018-08-09T12:46:03.777Z,48.19
2018-08-09T12:47:07.300Z,48.50
2018-08-09T12:48:10.713Z,48.62
2018-08-09T12:49:14.141Z,49.08
2018-08-09T12:50:17.616Z,48.89
2018-08-09T12:51:21.062Z,48.55
2018-08-09T12:52:24.530Z,48.68
2018-08-09T12:53:27.961Z,48.66
2018-08-09T12:54:31.432Z,48.64
2018-08-09T12:55:35.464Z,48.28
2018-08-09T12:56:38.882Z,48.48
2018-08-09T12:57:42.377Z,48.49
2018-08-09T12:58:45.782Z,48.99
2018-08-09T12:59:49.324Z,49.14
2018-08-09T13:00:52.829Z,48.64
2018-08-09T13:01:56.265Z,48.78
2018-08-09T13:02:59.709Z,49.03
2018-08-09T13:04:03.572Z,49.16
2018-08-09T13:05:08.463Z,48.92
2018-08-09T13:06:12.306Z,48.49
2018-08-09T13:07:16.034Z,49.26
2018-08-09T13:08:19.636Z,49.06
2018-08-09T13:09:23.084Z,49.21
2018-08-09T13:10:26.534Z,49.14
2018-08-09T13:11:30.306Z,49.33
2018-08-09T13:12:33.968Z,53.14
2018-08-09T13:13:37.592Z,54.17
2018-08-09T13:14:41.227Z,55.59
2018-08-09T13:15:44.839Z,55.57
2018-08-09T13:16:48.440Z,56.09
2018-08-09T13:17:52.017Z,55.67
2018-08-09T13:18:55.734Z,55.95
2018-08-09T13:19:59.322Z,55.96
2018-08-09T13:21:02.891Z,55.84
2018-08-09T13:22:06.676Z,56.17
2018-08-09T13:23:10.347Z,56.18
2018-08-09T13:24:14.403Z,56.77
2018-08-09T13:25:17.944Z,56.17
2018-08-09T13:26:21.533Z,56.46
2018-08-09T13:27:25.972Z,56.29
2018-08-09T13:28:29.426Z,56.25
2018-08-09T13:29:33.146Z,56.42
2018-08-09T13:30:38.239Z,56.06
2018-08-09T13:31:41.741Z,56.41
2018-08-09T13:32:45.584Z,56.05
2018-08-09T13:33:50.011Z,56.32
2018-08-09T13:34:53.428Z,56.75
2018-08-09T13:35:56.951Z,56.73
2018-08-09T13:37:00.475Z,57.38
2018-08-09T13:38:03.983Z,57.73
2018-08-09T13:39:11.066Z,57.44